Time;durP1;ratioP1;P1;durP2;ratioP2;P2;SDS_P1;SDS_P2;PMS_P1;PMS_P2;Temp;Humidity;BMP_temperature;BMP_pressure;BME280_temperature;BME280_humidity;BME280_pressure;Samples;Min_cycle;Max_cycle;Signal;HPM_P1;HPM_P2
2024/02/04 00:01:04;;;;;;;5.00;3.70;;;;;;;6.61;100.00;96511.41;106820;1295;22604;-85
2024/02/04 00:04:51;;;;;;;3.00;2.80;;;;;;;6.62;100.00;96509.45;107021;1301;22571;-85
2024/02/04 00:08:28;;;;;;;;;;;;;;;;;;;;;
2024/02/04 00:12:03;;;;;;;4.50;2.60;;;;;;;6.64;100.00;96500.45;106894;1301;22590;-86
2024/02/04 00:15:26;;;;;;;4.10;3.00;;;;;;;6.66;100.00;96488.38;106764;1294;138220;-86
2024/02/04 00:18:54;;;;;;;3.30;2.60;;;;;;;6.69;100.00;96479.38;106865;1301;22640;-86
2024/02/04 00:22:21;;;;;;;3.00;2.40;;;;;;;6.72;100.00;96487.81;106902;1301;22552;-86
2024/02/04 00:25:49;;;;;;;2.50;2.30;;;;;;;6.72;100.00;96493.27;106638;1301;138589;-84
2024/02/04 00:29:17;;;;;;;2.60;2.20;;;;;;;6.75;100.00;96491.75;106838;1297;24237;-85
2024/02/04 00:32:54;;;;;;;3.40;2.90;;;;;;;6.77;100.00;96488.08;106857;1301;138389;-84
2024/02/04 00:36:24;;;;;;;3.10;2.70;;;;;;;6.79;100.00;96475.80;106927;1301;22587;-85
2024/02/04 00:39:53;;;;;;;2.90;2.60;;;;;;;6.79;100.00;96475.02;106800;1301;22570;-85
2024/02/04 00:43:20;;;;;;;3.20;2.40;;;;;;;6.79;100.00;96478.05;107024;1301;22661;-85
2024/02/04 00:46:47;;;;;;;3.00;2.40;;;;;;;6.79;100.00;96466.75;106860;1301;23907;-85
2024/02/04 00:50:15;;;;;;;2.50;1.90;;;;;;;6.81;100.00;96467.76;106748;1301;138525;-84
2024/02/04 00:53:44;;;;;;;2.20;1.60;;;;;;;6.85;100.00;96470.11;106813;1301;22586;-86
2024/02/04 00:57:12;;;;;;;2.70;1.90;;;;;;;6.87;100.00;96466.31;106904;1301;138292;-86
2024/02/04 01:00:40;;;;;;;3.60;2.70;;;;;;;6.88;100.00;96458.56;107601;1297;22570;-87
2024/02/04 01:04:16;;;;;;;2.00;1.80;;;;;;;6.90;100.00;96462.35;106807;1297;24218;-84
2024/02/04 01:07:43;;;;;;;2.10;1.70;;;;;;;6.91;100.00;96460.15;106748;1301;138399;-85
2024/02/04 01:11:10;;;;;;;2.60;1.90;;;;;;;6.93;100.00;96453.56;106796;1297;22678;-86
2024/02/04 01:14:39;;;;;;;2.60;1.80;;;;;;;6.94;100.00;96452.08;106730;1301;138501;-85
2024/02/04 01:18:08;;;;;;;2.10;1.70;;;;;;;6.96;100.00;96446.88;107051;1301;22547;-85
2024/02/04 01:21:36;;;;;;;2.40;2.20;;;;;;;6.97;100.00;96451.70;106940;1301;137327;-84
2024/02/04 01:25:04;;;;;;;2.20;1.80;;;;;;;6.96;100.00;96446.21;106820;1301;24241;-85
2024/02/04 01:28:33;;;;;;;2.90;2.10;;;;;;;6.96;100.00;96464.45;106830;1300;23995;-85
2024/02/04 01:35:35;;;;;;;2.40;1.90;;;;;;;6.97;100.00;96459.15;106843;1303;22576;-85
2024/02/04 01:39:02;;;;;;;2.40;1.90;;;;;;;6.98;100.00;96456.34;106676;1303;138332;-86
2024/02/04 01:42:32;;;;;;;2.40;2.00;;;;;;;6.97;100.00;96462.64;106621;1298;22655;-86
2024/02/04 01:45:57;;;;;;;2.10;1.90;;;;;;;6.94;100.00;96454.14;102578;1298;5420090;-85
2024/02/04 01:49:25;;;;;;;2.60;2.30;;;;;;;6.94;100.00;96450.89;106570;1301;22966;-86
2024/02/04 01:52:55;;;;;;;1.90;1.80;;;;;;;6.92;100.00;96455.63;106696;1299;22603;-85
2024/02/04 01:56:28;;;;;;;2.70;2.30;;;;;;;6.89;100.00;96456.04;106741;1295;137490;-84
2024/02/04 01:59:56;;;;;;;3.20;2.80;;;;;;;6.86;100.00;96459.11;106635;1303;22679;-84
2024/02/04 02:03:23;;;;;;;3.20;2.60;;;;;;;6.88;100.00;96455.36;106537;1303;137351;-84
2024/02/04 02:06:51;;;;;;;3.70;1.50;;;;;;;6.88;100.00;96445.84;106540;1303;22675;-84
2024/02/04 02:10:18;;;;;;;2.40;2.20;;;;;;;6.88;100.00;96439.32;106667;1301;22599;-85
2024/02/04 02:14:03;;;;;;;2.40;2.20;;;;;;;6.88;100.00;96447.39;106425;1303;138733;-85
2024/02/04 02:17:31;;;;;;;2.20;2.00;;;;;;;6.90;100.00;96440.00;106738;1299;23343;-85
2024/02/04 02:21:02;;;;;;;2.10;1.90;;;;;;;6.91;100.00;96451.36;107236;1301;137756;-85
2024/02/04 02:24:31;;;;;;;2.30;2.10;;;;;;;6.92;100.00;96472.27;106610;1303;23409;-85
2024/02/04 02:27:59;;;;;;;2.20;2.00;;;;;;;6.92;100.00;96462.27;106521;1303;137499;-85
2024/02/04 02:31:28;;;;;;;3.10;2.60;;;;;;;6.88;100.00;96450.55;106621;1303;22602;-85
2024/02/04 02:34:55;;;;;;;2.60;2.40;;;;;;;6.80;100.00;96447.35;106835;1296;24757;-84
2024/02/04 02:38:32;;;;;;;2.10;1.70;;;;;;;6.75;100.00;96448.88;106492;1299;138600;-85
2024/02/04 02:42:02;;;;;;;1.90;1.80;;;;;;;6.73;100.00;96443.08;106551;1303;24410;-85
2024/02/04 02:45:41;;;;;;;1.80;1.70;;;;;;;6.71;100.00;96438.11;106569;1295;138326;-84
2024/02/04 02:49:10;;;;;;;2.10;1.80;;;;;;;6.70;100.00;96432.77;106571;1303;23456;-85
2024/02/04 02:52:37;;;;;;;2.80;1.60;;;;;;;6.69;100.00;96417.34;106786;1303;22562;-84
2024/02/04 02:56:04;;;;;;;1.30;1.20;;;;;;;6.68;100.00;96409.70;106644;1303;22865;-85
2024/02/04 02:59:32;;;;;;;1.90;1.30;;;;;;;6.68;100.00;96419.15;106565;1303;22608;-86
2024/02/04 03:02:59;;;;;;;1.60;1.40;;;;;;;6.69;100.00;96427.80;106692;1303;22507;-86
2024/02/04 03:06:27;;;;;;;1.60;1.20;;;;;;;6.70;100.00;96424.64;106679;1297;22572;-86
2024/02/04 03:09:54;;;;;;;1.90;1.80;;;;;;;6.69;100.00;96440.77;106682;1303;22532;-86
2024/02/04 03:13:22;;;;;;;1.80;1.60;;;;;;;6.66;100.00;96447.93;106680;1303;22630;-85
2024/02/04 03:16:52;;;;;;;1.50;1.40;;;;;;;6.62;100.00;96445.02;106506;1299;22636;-85
2024/02/04 03:20:19;;;;;;;1.80;1.40;;;;;;;6.58;100.00;96434.95;106430;1301;22584;-86
2024/02/04 03:23:46;;;;;;;3.30;1.80;;;;;;;6.54;100.00;96435.23;106483;1303;23955;-85
2024/02/04 03:27:14;;;;;;;2.80;1.70;;;;;;;6.52;100.00;96440.23;106592;1303;138375;-86
2024/02/04 03:30:43;;;;;;;3.00;2.70;;;;;;;6.49;100.00;96453.09;106668;1303;22592;-86
2024/02/04 03:34:12;;;;;;;4.30;3.90;;;;;;;6.44;100.00;96456.73;106618;1300;138203;-86
2024/02/04 03:37:39;;;;;;;3.40;3.10;;;;;;;6.40;100.00;96454.88;106885;1302;22381;-86
2024/02/04 03:41:06;;;;;;;3.90;3.60;;;;;;;6.34;100.00;96460.81;106913;1302;22566;-86
2024/02/04 03:44:34;;;;;;;4.20;3.90;;;;;;;6.29;100.00;96461.41;106701;1302;137351;-86
2024/02/04 03:48:01;;;;;;;4.50;4.20;;;;;;;6.26;100.00;96460.21;106673;1302;22567;-86
2024/02/04 03:51:29;;;;;;;4.60;4.20;;;;;;;6.23;100.00;96470.82;106533;1302;137224;-86
2024/02/04 03:54:57;;;;;;;5.50;5.10;;;;;;;6.21;100.00;96476.58;106694;1303;22581;-86
2024/02/04 03:58:29;;;;;;;7.30;6.70;;;;;;;6.18;100.00;96475.16;106513;1303;138378;-86
2024/02/04 04:01:43;;;;;;;;;;;;;;;;;;;;;
2024/02/04 04:05:15;;;;;;;5.70;5.20;;;;;;;6.13;100.00;96471.54;106646;1302;22628;-86
2024/02/04 04:08:42;;;;;;;5.60;5.10;;;;;;;6.13;100.00;96472.39;106597;1289;138971;-85
2024/02/04 04:12:09;;;;;;;7.10;6.50;;;;;;;6.12;100.00;96480.89;106649;1299;22585;-85
2024/02/04 04:15:37;;;;;;;6.90;6.40;;;;;;;6.11;100.00;96483.60;106359;1299;137375;-85
2024/02/04 04:19:04;;;;;;;4.70;4.30;;;;;;;6.08;100.00;96485.94;106672;1303;22575;-84
2024/02/04 04:22:43;;;;;;;3.90;3.60;;;;;;;6.05;100.00;96484.92;106509;1296;138148;-84
2024/02/04 04:26:11;;;;;;;2.70;2.50;;;;;;;6.06;100.00;96483.45;106494;1303;24365;-84
2024/02/04 04:29:47;;;;;;;3.60;2.80;;;;;;;6.04;100.00;96477.40;106647;1296;22570;-85
2024/02/04 04:33:23;;;;;;;3.70;3.40;;;;;;;6.01;100.00;96469.89;106650;1296;138415;-85
2024/02/04 04:36:50;;;;;;;6.10;5.60;;;;;;;6.00;100.00;96469.10;106627;1282;22642;-85
2024/02/04 04:40:19;;;;;;;7.60;7.00;;;;;;;5.99;100.00;96470.90;106624;1302;137145;-85
2024/02/04 04:43:47;;;;;;;5.60;5.10;;;;;;;5.99;100.00;96466.10;106580;1303;22563;-85
2024/02/04 04:47:15;;;;;;;5.80;5.20;;;;;;;5.99;100.00;96455.98;106538;1297;138761;-84
2024/02/04 04:50:43;;;;;;;5.90;5.40;;;;;;;5.99;100.00;96452.55;106852;1301;22551;-85
2024/02/04 04:54:11;;;;;;;4.50;3.80;;;;;;;5.98;100.00;96455.94;106717;1296;22609;-85
2024/02/04 04:57:41;;;;;;;3.90;3.50;;;;;;;5.98;100.00;96454.20;107069;1302;137321;-85
2024/02/04 05:01:08;;;;;;;3.90;3.60;;;;;;;5.97;100.00;96450.84;106658;1303;22675;-85
2024/02/04 05:04:38;;;;;;;4.20;3.90;;;;;;;5.96;100.00;96446.33;106539;1301;137184;-85
2024/02/04 05:08:05;;;;;;;4.10;3.70;;;;;;;5.97;100.00;96437.33;106541;1296;24357;-85
2024/02/04 05:11:32;;;;;;;4.00;3.60;;;;;;;5.98;100.00;96440.08;106664;1303;22644;-85
2024/02/04 05:15:16;;;;;;;;;;;;;;;;;;;;;
2024/02/04 05:18:44;;;;;;;2.80;2.60;;;;;;;5.98;100.00;96425.27;106601;1303;22711;-84
2024/02/04 05:22:11;;;;;;;3.50;2.90;;;;;;;5.99;100.00;96427.61;106565;1301;22603;-85
2024/02/04 05:25:39;;;;;;;3.00;2.70;;;;;;;6.00;100.00;96425.96;106635;1303;22567;-85
2024/02/04 05:29:16;;;;;;;3.00;2.70;;;;;;;6.00;100.00;96417.71;106694;1303;138407;-85
2024/02/04 05:32:44;;;;;;;2.50;2.30;;;;;;;6.01;100.00;96412.49;106874;1303;22586;-88
2024/02/04 05:36:15;;;;;;;3.10;2.80;;;;;;;6.02;100.00;96433.35;106700;1296;22575;-87
2024/02/04 05:39:51;;;;;;;3.30;3.00;;;;;;;6.01;100.00;96435.67;106585;1295;138573;-86
2024/02/04 05:43:18;;;;;;;4.30;4.00;;;;;;;6.01;100.00;96447.60;106684;1303;22598;-87
2024/02/04 05:46:45;;;;;;;2.90;2.60;;;;;;;5.99;100.00;96453.95;106517;1303;138801;-86
2024/02/04 05:50:13;;;;;;;3.20;2.90;;;;;;;5.98;100.00;96469.35;106697;1295;23020;-86
2024/02/04 05:53:41;;;;;;;4.60;4.20;;;;;;;5.97;100.00;96496.91;106607;1303;138132;-86
2024/02/04 05:57:08;;;;;;;4.20;3.80;;;;;;;5.97;100.00;96533.89;106696;1303;22596;-87
2024/02/04 06:00:35;;;;;;;5.00;4.60;;;;;;;5.97;100.00;96527.05;106695;1298;22655;-86
2024/02/04 06:03:54;;;;;;;;;;;;;;;;;;;;;
2024/02/04 06:07:33;;;;;;;4.20;3.80;;;;;;;5.93;100.00;96571.33;106660;1297;25460;-86
2024/02/04 06:11:00;;;;;;;3.70;3.30;;;;;;;5.89;100.00;96567.36;106618;1303;138243;-86
2024/02/04 06:14:27;;;;;;;4.50;3.40;;;;;;;5.86;100.00;96574.88;106701;1303;22595;-86
2024/02/04 06:17:55;;;;;;;3.80;3.40;;;;;;;5.81;100.00;96575.73;106824;1302;22674;-87
2024/02/04 06:21:22;;;;;;;3.30;3.00;;;;;;;5.79;100.00;96575.26;106666;1303;22624;-86
2024/02/04 06:24:50;;;;;;;3.40;3.10;;;;;;;5.76;100.00;96570.34;106680;1296;22976;-87
2024/02/04 06:28:17;;;;;;;3.10;2.80;;;;;;;5.74;100.00;96566.73;106669;1294;22567;-86
2024/02/04 06:31:57;;;;;;;5.70;3.30;;;;;;;5.74;100.00;96561.23;106552;1303;22534;-86
2024/02/04 06:35:26;;;;;;;5.70;3.90;;;;;;;5.75;100.00;96559.41;106351;1299;138856;-87
2024/02/04 06:38:53;;;;;;;4.10;3.00;;;;;;;5.76;100.00;96523.80;106588;1304;22613;-86
2024/02/04 06:42:21;;;;;;;4.10;3.50;;;;;;;5.76;100.00;96524.77;106541;1304;22608;-86
2024/02/04 06:45:49;;;;;;;4.50;3.80;;;;;;;5.77;100.00;96529.98;106577;1304;22559;-86
2024/02/04 06:49:18;;;;;;;4.10;3.30;;;;;;;5.77;100.00;96530.87;106555;1300;22552;-86
2024/02/04 06:52:45;;;;;;;28.10;11.90;;;;;;;5.76;100.00;96522.19;106613;1303;22589;-86
2024/02/04 06:56:12;;;;;;;9.00;5.50;;;;;;;5.77;100.00;96521.64;106554;1297;22825;-86
2024/02/04 06:59:40;;;;;;;7.40;5.20;;;;;;;5.78;100.00;96518.94;106503;1303;138711;-86
2024/02/04 07:03:06;;;;;;;22.40;12.80;;;;;;;5.79;100.00;96511.12;106604;1304;22637;-85
2024/02/04 07:06:34;;;;;;;9.50;7.00;;;;;;;5.81;100.00;96505.63;106533;1303;24259;-86
2024/02/04 07:10:01;;;;;;;16.50;6.90;;;;;;;5.83;100.00;96506.27;106481;1304;138358;-86
2024/02/04 07:13:28;;;;;;;13.50;12.10;;;;;;;5.83;100.00;96515.20;106554;1300;22812;-86
2024/02/04 07:16:55;;;;;;;10.60;5.80;;;;;;;5.81;100.00;96510.58;106416;1298;139094;-86
2024/02/04 07:20:23;;;;;;;7.40;3.70;;;;;;;5.77;100.00;96514.10;106559;1303;22607;-86
2024/02/04 07:24:00;;;;;;;;;;;;;;;;;;;;;
2024/02/04 07:27:42;;;;;;;23.90;14.30;;;;;;;5.66;100.00;96522.15;106700;1297;24253;-86
2024/02/04 07:31:09;;;;;;;9.50;4.80;;;;;;;5.60;100.00;96510.70;106571;1304;22590;-87
2024/02/04 07:34:37;;;;;;;5.60;4.20;;;;;;;5.57;100.00;96515.98;106541;1303;138417;-86
2024/02/04 07:38:04;;;;;;;4.90;3.20;;;;;;;5.56;100.00;96518.52;106707;1302;23870;-86
2024/02/04 07:41:32;;;;;;;5.50;3.40;;;;;;;5.51;100.00;96527.06;106556;1296;138305;-86
2024/02/04 07:44:59;;;;;;;11.80;5.20;;;;;;;5.47;100.00;96537.54;106670;1282;22882;-86
2024/02/04 07:48:26;;;;;;;12.50;5.90;;;;;;;5.46;100.00;96526.31;106541;1303;139592;-86
2024/02/04 07:51:54;;;;;;;5.80;3.50;;;;;;;5.45;100.00;96527.41;106575;1303;22636;-86
2024/02/04 07:55:25;;;;;;;4.10;3.40;;;;;;;5.40;100.00;96511.74;106633;1297;22555;-86
2024/02/04 07:58:34;;;;;;;4.10;2.80;;;;;;;5.39;100.00;96523.17;106649;1302;138567;-87
2024/02/04 08:02:01;;;;;;;9.30;5.30;;;;;;;5.34;100.00;96518.20;106586;1297;22577;-87
2024/02/04 08:05:29;;;;;;;6.50;3.80;;;;;;;5.30;100.00;96522.35;106526;1296;138257;-87
2024/02/04 08:08:56;;;;;;;5.80;4.70;;;;;;;5.26;100.00;96526.83;106586;1303;22580;-86
2024/02/04 08:12:24;;;;;;;6.80;4.80;;;;;;;5.23;100.00;96521.08;106566;1297;138301;-86
2024/02/04 08:15:52;;;;;;;6.50;4.50;;;;;;;5.22;100.00;96517.42;106639;1299;24189;-86
2024/02/04 08:19:19;;;;;;;9.10;5.70;;;;;;;5.23;100.00;96524.09;106636;1303;22591;-86
2024/02/04 08:22:47;;;;;;;7.80;5.70;;;;;;;5.21;100.00;96526.15;106856;1297;22609;-86
2024/02/04 08:26:14;;;;;;;10.20;5.90;;;;;;;5.18;100.00;96534.95;106661;1303;25470;-86
2024/02/04 08:29:42;;;;;;;11.20;6.60;;;;;;;5.16;100.00;96545.35;106557;1294;138415;-86
2024/02/04 08:33:14;;;;;;;12.20;7.80;;;;;;;5.15;100.00;96540.61;106685;1296;24490;-86
2024/02/04 08:36:42;;;;;;;9.30;7.10;;;;;;;5.11;100.00;96543.54;106505;1300;138810;-86
2024/02/04 08:40:10;;;;;;;9.30;6.40;;;;;;;5.06;100.00;96543.33;106722;1302;22658;-86
2024/02/04 08:43:37;;;;;;;12.70;7.20;;;;;;;5.03;100.00;96559.01;106760;1299;22613;-86
2024/02/04 08:47:05;;;;;;;8.40;6.30;;;;;;;5.03;100.00;96560.27;106686;1303;138638;-86
2024/02/04 08:50:33;;;;;;;10.40;7.20;;;;;;;5.00;100.00;96560.70;106666;1303;24301;-86
2024/02/04 08:54:00;;;;;;;9.50;7.30;;;;;;;5.00;100.00;96556.20;106590;1298;138532;-86
2024/02/04 08:57:28;;;;;;;11.40;7.80;;;;;;;5.01;100.00;96558.37;106784;1298;24801;-85
2024/02/04 09:00:56;;;;;;;38.90;18.70;;;;;;;5.01;100.00;96547.02;106640;1299;22602;-84
2024/02/04 09:04:23;;;;;;;11.00;9.10;;;;;;;5.04;100.00;96536.67;106651;1302;22580;-85
2024/02/04 09:07:51;;;;;;;38.40;14.70;;;;;;;5.02;100.00;96539.36;106650;1300;22621;-85
2024/02/04 09:11:18;;;;;;;17.80;10.60;;;;;;;5.04;100.00;96546.55;106487;1303;138763;-85
2024/02/04 09:14:47;;;;;;;17.60;10.70;;;;;;;5.09;100.00;96551.23;106611;1298;22598;-84
2024/02/04 09:18:14;;;;;;;18.40;14.30;;;;;;;5.21;100.00;96545.52;106401;1301;138628;-85
2024/02/04 09:21:34;;;;;;;;;;;;;;;;;;;;;
2024/02/04 09:25:01;;;;;;;;;;;;;;;;;;;;;
2024/02/04 09:28:37;;;;;;;22.40;17.00;;;;;;;5.40;100.00;96518.10;106681;1302;24474;-85
2024/02/04 09:32:05;;;;;;;22.20;16.90;;;;;;;5.47;100.00;96508.86;106648;1296;22566;-85
2024/02/04 09:35:33;;;;;;;51.30;44.90;;;;;;;5.57;100.00;96518.59;106598;1295;139500;-85
2024/02/04 09:39:00;;;;;;;15.10;12.80;;;;;;;5.61;100.00;96517.83;106643;1299;23095;-85
2024/02/04 09:42:29;;;;;;;12.60;10.90;;;;;;;5.66;100.00;96526.59;106555;1295;138887;-85
2024/02/04 09:45:55;;;;;;;14.40;10.60;;;;;;;5.72;100.00;96527.44;106631;1297;24986;-85
2024/02/04 09:49:25;;;;;;;11.40;10.20;;;;;;;5.78;100.00;96508.62;106666;1298;22679;-85
2024/02/04 09:52:52;;;;;;;28.30;21.00;;;;;;;5.87;100.00;96511.90;106514;1298;22569;-85
2024/02/04 09:56:11;;;;;;;;;;;;;;;;;;;;;
2024/02/04 09:59:40;;;;;;;12.90;10.70;;;;;;;6.01;100.00;96500.33;106595;1296;24438;-84
2024/02/04 10:03:08;;;;;;;22.70;14.00;;;;;;;6.13;100.00;96482.83;106734;1303;22684;-84
2024/02/04 10:06:34;;;;;;;14.90;9.40;;;;;;;6.27;100.00;96482.29;106635;1303;138624;-85
2024/02/04 10:10:02;;;;;;;13.00;8.40;;;;;;;6.39;100.00;96479.77;106656;1297;22625;-85
2024/02/04 10:13:29;;;;;;;4.00;3.50;;;;;;;6.49;100.00;96480.27;106722;1303;138527;-85
2024/02/04 10:16:56;;;;;;;19.70;10.30;;;;;;;6.57;100.00;96478.55;106526;1303;22562;-85
2024/02/04 10:20:24;;;;;;;13.40;5.90;;;;;;;6.65;100.00;96467.14;106650;1303;22606;-85
2024/02/04 10:23:51;;;;;;;4.70;3.70;;;;;;;6.72;100.00;96451.79;106614;1303;138636;-85
2024/02/04 10:27:18;;;;;;;2.80;2.40;;;;;;;6.81;100.00;96436.96;106684;1303;24316;-85
2024/02/04 10:30:46;;;;;;;4.00;3.40;;;;;;;6.94;100.00;96429.77;106542;1296;138265;-85
2024/02/04 10:34:15;;;;;;;11.50;6.50;;;;;;;7.02;100.00;96419.14;106694;1300;22546;-85
2024/02/04 10:37:42;;;;;;;11.00;6.00;;;;;;;7.06;100.00;96413.50;106664;1303;24060;-85
2024/02/04 10:41:09;;;;;;;26.00;12.90;;;;;;;7.08;100.00;96413.27;106708;1302;22573;-85
2024/02/04 10:44:37;;;;;;;14.30;7.50;;;;;;;7.11;100.00;96403.12;106694;1302;23138;-85
2024/02/04 10:48:04;;;;;;;7.00;4.10;;;;;;;7.12;100.00;96396.80;106606;1298;138634;-86
2024/02/04 10:51:31;;;;;;;3.70;2.60;;;;;;;7.13;100.00;96390.05;106440;1296;22595;-85
2024/02/04 10:54:59;;;;;;;6.00;3.80;;;;;;;7.13;100.00;96402.41;106634;1303;138849;-85
2024/02/04 10:58:26;;;;;;;8.70;6.40;;;;;;;7.12;100.00;96400.15;106679;1303;24988;-85
2024/02/04 11:01:53;;;;;;;8.90;4.80;;;;;;;7.07;100.00;96388.27;106693;1303;22547;-85
2024/02/04 11:05:21;;;;;;;6.20;4.50;;;;;;;7.01;100.00;96392.85;106700;1296;23315;-85
2024/02/04 11:08:48;;;;;;;4.80;4.00;;;;;;;6.97;100.00;96382.63;106699;1298;25317;-86
2024/02/04 11:12:15;;;;;;;5.30;4.80;;;;;;;6.95;100.00;96381.98;106552;1297;138517;-85
2024/02/04 11:15:44;;;;;;;7.30;5.10;;;;;;;6.91;100.00;96376.49;106850;1297;22645;-85
2024/02/04 11:19:16;;;;;;;5.80;3.90;;;;;;;6.88;100.00;96361.09;106591;1297;138149;-85
2024/02/04 11:22:42;;;;;;;4.00;3.00;;;;;;;6.91;100.00;96357.38;106777;1303;22616;-86
2024/02/04 11:26:25;;;;;;;3.30;2.80;;;;;;;6.92;100.00;96348.98;106832;1303;22595;-85
2024/02/04 11:29:52;;;;;;;3.70;2.20;;;;;;;6.98;100.00;96341.33;106418;1296;139477;-85
2024/02/04 11:33:25;;;;;;;3.40;3.10;;;;;;;7.03;100.00;96339.64;106736;1303;22550;-85
2024/02/04 11:37:02;;;;;;;2.80;2.30;;;;;;;7.09;100.00;96340.02;106798;1300;138825;-86
2024/02/04 11:40:30;;;;;;;2.90;2.50;;;;;;;7.13;100.00;96344.41;106193;1303;22969;-85
2024/02/04 11:43:59;;;;;;;2.00;1.80;;;;;;;7.16;100.00;96345.71;106372;1303;138138;-86
2024/02/04 11:47:28;;;;;;;8.80;5.90;;;;;;;7.19;100.00;96341.97;106696;1297;22553;-86
2024/02/04 11:51:24;;;;;;;32.20;8.60;;;;;;;7.17;100.00;96333.09;106407;1302;22569;-85
2024/02/04 11:54:31;;;;;;;19.80;8.30;;;;;;;7.13;100.00;96320.83;106565;1303;138392;-85
2024/02/04 11:58:01;;;;;;;11.90;6.10;;;;;;;7.05;100.00;96311.80;106685;1303;24454;-85
2024/02/04 12:01:26;;;;;;;5.10;4.20;;;;;;;6.99;100.00;96311.11;106609;1302;138679;-86
2024/02/04 12:04:55;;;;;;;9.30;5.30;;;;;;;6.91;100.00;96309.77;106711;1303;22670;-85
2024/02/04 12:08:23;;;;;;;4.50;3.30;;;;;;;6.87;100.00;96285.77;106601;1300;22598;-86
2024/02/04 12:11:51;;;;;;;16.00;6.90;;;;;;;6.87;100.00;96268.39;106676;1303;24240;-85
2024/02/04 12:15:17;;;;;;;9.60;5.80;;;;;;;6.88;100.00;96258.19;106747;1303;22646;-86
2024/02/04 12:18:47;;;;;;;5.50;3.70;;;;;;;6.92;100.00;96253.09;106574;1302;138892;-85
2024/02/04 12:22:15;;;;;;;3.90;3.10;;;;;;;6.97;100.00;96245.35;106546;1302;23998;-85
2024/02/04 12:25:42;;;;;;;18.20;6.20;;;;;;;7.02;100.00;96238.75;106675;1302;138299;-85
2024/02/04 12:29:10;;;;;;;6.00;2.90;;;;;;;7.08;100.00;96230.15;106670;1303;25467;-85
2024/02/04 12:32:40;;;;;;;2.30;1.80;;;;;;;7.16;100.00;96219.13;106673;1303;22562;-85
2024/02/04 12:36:11;;;;;;;2.90;2.20;;;;;;;7.25;100.00;96210.00;106571;1297;22644;-85
2024/02/04 12:39:38;;;;;;;3.60;2.50;;;;;;;7.35;100.00;96204.39;106694;1296;22629;-86
2024/02/04 12:43:06;;;;;;;4.10;2.90;;;;;;;7.45;100.00;96205.52;106586;1303;138925;-85
2024/02/04 12:46:33;;;;;;;3.30;2.40;;;;;;;7.54;100.00;96200.77;106791;1302;25455;-86
2024/02/04 12:50:00;;;;;;;3.20;1.70;;;;;;;7.61;100.00;96190.16;106521;1303;138784;-84
2024/02/04 12:53:28;;;;;;;2.60;2.10;;;;;;;7.67;100.00;96204.13;106811;1303;22784;-86
2024/02/04 12:56:58;;;;;;;5.90;4.10;;;;;;;7.73;100.00;96211.02;106811;1297;24988;-85
2024/02/04 13:00:25;;;;;;;1.30;1.10;;;;;;;7.77;100.00;96216.16;106443;1303;138352;-86
2024/02/04 13:03:53;;;;;;;1.70;1.50;;;;;;;7.77;100.00;96204.23;106681;1303;22876;-86
2024/02/04 13:07:20;;;;;;;1.50;1.40;;;;;;;7.77;100.00;96182.98;106585;1294;138495;-85
2024/02/04 13:10:47;;;;;;;2.20;1.10;;;;;;;7.78;100.00;96196.30;106727;1295;22605;-85
2024/02/04 13:14:15;;;;;;;7.80;4.70;;;;;;;7.73;100.00;96185.14;106460;1302;138459;-84
2024/02/04 13:17:42;;;;;;;22.00;8.90;;;;;;;7.68;100.00;96175.96;106757;1296;22568;-86
2024/02/04 13:21:09;;;;;;;16.30;6.00;;;;;;;7.60;100.00;96164.23;106686;1303;22604;-85
2024/02/04 13:24:37;;;;;;;8.20;3.60;;;;;;;7.52;100.00;96165.83;106892;1303;22580;-85
2024/02/04 13:28:33;;;;;;;14.30;7.00;;;;;;;7.48;100.00;96160.52;106665;1303;22601;-85
2024/02/04 13:31:36;;;;;;;10.80;4.50;;;;;;;7.47;100.00;96152.45;106444;1303;139120;-85
2024/02/04 13:35:06;;;;;;;1.90;1.20;;;;;;;7.46;100.00;96137.09;106691;1303;22566;-85
2024/02/04 13:38:32;;;;;;;5.30;2.40;;;;;;;7.49;100.00;96142.73;106593;1299;138560;-85
2024/02/04 13:42:01;;;;;;;67.60;41.30;;;;;;;7.50;100.00;96133.67;106813;1296;22631;-85
2024/02/04 13:45:29;;;;;;;5.20;3.00;;;;;;;7.54;100.00;96128.39;102956;1303;5389004;-87
2024/02/04 13:48:57;;;;;;;2.40;1.40;;;;;;;7.60;100.00;96123.75;106863;1296;138902;-85
2024/02/04 13:52:25;;;;;;;4.00;2.10;;;;;;;7.65;100.00;96131.27;106617;1297;25284;-86
2024/02/04 13:55:52;;;;;;;2.50;1.60;;;;;;;7.68;100.00;96134.04;106835;1303;138393;-87
2024/02/04 13:59:21;;;;;;;8.70;4.00;;;;;;;7.68;100.00;96131.11;106754;1303;22593;-86
2024/02/04 14:02:48;;;;;;;4.40;2.20;;;;;;;7.70;100.00;96154.56;106812;1302;22691;-86
2024/02/04 14:06:16;;;;;;;5.10;3.20;;;;;;;7.69;100.00;96202.92;106886;1296;22808;-86
2024/02/04 14:09:53;;;;;;;5.40;4.00;;;;;;;7.61;100.00;96222.07;106891;1299;22563;-86
2024/02/04 14:13:22;;;;;;;4.10;3.20;;;;;;;7.48;100.00;96232.89;107062;1297;137197;-86
2024/02/04 14:16:50;;;;;;;4.10;2.90;;;;;;;7.35;100.00;96242.60;106709;1303;22553;-86
2024/02/04 14:20:17;;;;;;;4.30;2.60;;;;;;;7.14;100.00;96223.36;106643;1302;137303;-86
2024/02/04 14:23:45;;;;;;;6.00;3.90;;;;;;;6.99;100.00;96212.23;107039;1303;22578;-88
2024/02/04 14:27:20;;;;;;;4.10;3.20;;;;;;;6.90;100.00;96204.50;106686;1303;22814;-86
2024/02/04 14:30:46;;;;;;;4.90;3.60;;;;;;;6.78;100.00;96196.33;106490;1303;138545;-86
2024/02/04 14:34:16;;;;;;;5.90;3.90;;;;;;;6.71;100.00;96168.59;106725;1303;25444;-86
2024/02/04 14:37:43;;;;;;;6.30;4.80;;;;;;;6.66;100.00;96195.23;106600;1304;138234;-85
2024/02/04 14:41:11;;;;;;;5.80;4.80;;;;;;;6.62;100.00;96176.36;106927;1303;22668;-88
2024/02/04 14:44:38;;;;;;;35.90;23.70;;;;;;;6.61;100.00;96186.11;106935;1297;138448;-88
2024/02/04 14:51:33;;;;;;;34.00;15.70;;;;;;;6.61;100.00;96163.27;106829;1304;24898;-88
2024/02/04 14:55:00;;;;;;;23.60;13.90;;;;;;;6.61;100.00;96157.23;106725;1304;139555;-87
2024/02/04 14:58:28;;;;;;;43.50;34.50;;;;;;;6.62;100.00;96156.61;106884;1297;22564;-88
2024/02/04 15:02:01;;;;;;;302.10;150.00;;;;;;;6.63;100.00;96152.32;106857;1304;139273;-87
2024/02/04 15:05:31;;;;;;;38.00;25.50;;;;;;;6.64;100.00;96159.09;106868;1298;22575;-87
2024/02/04 15:08:59;;;;;;;18.50;13.00;;;;;;;6.66;100.00;96156.70;106821;1303;138578;-88
2024/02/04 15:12:27;;;;;;;18.00;11.00;;;;;;;6.63;100.00;96147.31;107039;1303;22532;-88
2024/02/04 15:15:54;;;;;;;17.60;10.30;;;;;;;6.64;100.00;96140.85;106965;1304;22600;-87
2024/02/04 15:19:21;;;;;;;13.20;9.60;;;;;;;6.64;100.00;96142.48;106924;1297;138874;-87
2024/02/04 15:22:49;;;;;;;19.70;13.50;;;;;;;6.63;100.00;96142.38;106901;1303;24412;-88
2024/02/04 15:26:16;;;;;;;12.30;8.30;;;;;;;6.59;100.00;96138.61;107008;1297;138804;-87
2024/02/04 15:29:44;;;;;;;16.60;11.10;;;;;;;6.56;100.00;96124.29;107058;1303;22783;-87
2024/02/04 15:33:11;;;;;;;20.30;11.70;;;;;;;6.52;100.00;96115.81;106879;1297;138914;-87
2024/02/04 15:36:41;;;;;;;59.50;46.00;;;;;;;6.53;100.00;96116.27;107086;1297;24035;-87
2024/02/04 15:40:09;;;;;;;188.60;51.70;;;;;;;6.54;100.00;96106.55;107012;1296;22589;-87
2024/02/04 15:43:36;;;;;;;111.60;33.00;;;;;;;6.55;100.00;96102.77;106872;1303;139293;-87
2024/02/04 15:47:03;;;;;;;36.50;13.50;;;;;;;6.58;100.00;96086.30;107155;1297;22542;-88
2024/02/04 15:50:30;;;;;;;40.70;27.60;;;;;;;6.61;100.00;96069.73;106648;1300;137527;-84
2024/02/04 15:53:58;;;;;;;91.30;53.60;;;;;;;6.66;100.00;96063.75;106817;1297;24410;-85
2024/02/04 15:57:31;;;;;;;27.10;18.10;;;;;;;6.68;100.00;96065.77;106841;1303;22606;-85
2024/02/04 16:01:06;;;;;;;27.20;15.20;;;;;;;6.67;100.00;96069.28;106770;1302;25451;-85
2024/02/04 16:04:37;;;;;;;60.50;23.40;;;;;;;6.66;100.00;96054.27;106906;1296;22556;-85
2024/02/04 16:08:04;;;;;;;22.60;13.20;;;;;;;6.65;100.00;96053.02;106822;1303;139230;-85
2024/02/04 16:11:32;;;;;;;14.60;10.50;;;;;;;6.67;100.00;96059.18;106636;1297;22774;-85
2024/02/04 16:14:59;;;;;;;9.90;7.20;;;;;;;6.68;100.00;96063.90;106624;1282;138586;-85
2024/02/04 16:18:26;;;;;;;5.10;3.70;;;;;;;6.70;100.00;96069.32;106850;1300;22715;-86
2024/02/04 16:21:56;;;;;;;4.60;3.00;;;;;;;6.77;100.00;96076.88;106868;1303;23128;-86